Time;durP1;ratioP1;P1;durP2;ratioP2;P2;SDS_P1;SDS_P2;PMS_P1;PMS_P2;Temp;Humidity;BMP_temperature;BMP_pressure;BME280_temperature;BME280_humidity;BME280_pressure;Samples;Min_cycle;Max_cycle;Signal;HPM_P1;HPM_P2
2022/07/01 00:00:48;;;;;;;7.93;5.88;;;21.00;91.60;;;;;;5033833;28;20104;-77
2022/07/01 00:03:13;;;;;;;7.50;5.45;;;21.00;91.60;;;;;;5033609;28;20026;-78
2022/07/01 00:05:39;;;;;;;7.25;5.50;;;21.00;91.50;;;;;;5016073;28;20029;-77
2022/07/01 00:08:05;;;;;;;7.47;5.90;;;21.00;91.40;;;;;;5033672;28;20022;-76
2022/07/01 00:10:31;;;;;;;8.55;5.93;;;21.10;91.40;;;;;;5033930;28;20133;-77
2022/07/01 00:12:56;;;;;;;7.63;5.60;;;21.10;91.30;;;;;;5015667;28;20523;-76
2022/07/01 00:15:22;;;;;;;7.85;5.75;;;21.10;91.30;;;;;;5015378;28;20025;-76
2022/07/01 00:17:48;;;;;;;7.18;5.38;;;21.10;91.20;;;;;;5016273;28;20026;-78
2022/07/01 00:20:14;;;;;;;7.80;5.10;;;21.10;91.20;;;;;;5033508;28;20168;-78
2022/07/01 00:22:40;;;;;;;7.22;5.47;;;21.10;91.20;;;;;;5015293;28;20053;-77
2022/07/01 00:25:06;;;;;;;8.45;5.80;;;21.10;91.30;;;;;;5015715;28;20083;-78
2022/07/01 00:27:32;;;;;;;7.35;5.32;;;21.10;91.40;;;;;;5015409;28;20025;-78
2022/07/01 00:29:58;;;;;;;8.07;5.40;;;21.00;91.40;;;;;;5032813;28;20693;-78
2022/07/01 00:32:23;;;;;;;7.57;5.55;;;21.00;91.40;;;;;;5015018;28;20074;-78
2022/07/01 00:34:49;;;;;;;8.27;5.60;;;21.00;91.50;;;;;;5033124;28;20026;-77
2022/07/01 00:37:14;;;;;;;8.02;5.47;;;21.00;91.50;;;;;;5033217;28;20032;-77
2022/07/01 00:39:40;;;;;;;7.57;5.70;;;21.00;91.50;;;;;;5033084;28;20052;-76
2022/07/01 00:42:06;;;;;;;7.82;5.40;;;21.00;91.50;;;;;;5015054;28;20021;-78
2022/07/01 00:44:32;;;;;;;8.75;5.50;;;21.00;91.50;;;;;;5015355;28;20125;-76
2022/07/01 00:47:01;;;;;;;8.55;5.22;;;21.00;91.60;;;;;;5015269;28;20037;-77
2022/07/01 00:49:27;;;;;;;7.07;5.20;;;21.00;91.60;;;;;;5033029;28;20527;-77
2022/07/01 00:51:53;;;;;;;7.07;5.05;;;21.00;91.60;;;;;;5032570;28;20026;-78
2022/07/01 00:54:20;;;;;;;6.85;4.97;;;20.90;91.50;;;;;;5015112;28;20026;-78
2022/07/01 00:56:46;;;;;;;7.63;4.95;;;21.00;91.50;;;;;;5032972;28;20080;-77
2022/07/01 00:59:12;;;;;;;7.70;5.65;;;21.00;91.40;;;;;;5032934;28;20374;-77
2022/07/01 01:01:38;;;;;;;6.88;4.70;;;21.00;91.30;;;;;;5032542;28;20025;-75
2022/07/01 01:04:04;;;;;;;7.57;5.10;;;21.10;91.30;;;;;;5032848;28;20025;-77
2022/07/01 01:06:29;;;;;;;6.53;5.00;;;21.10;91.30;;;;;;5015118;28;20037;-77
2022/07/01 01:08:55;;;;;;;9.00;5.00;;;21.10;91.20;;;;;;5014974;28;20025;-77
2022/07/01 01:11:20;;;;;;;7.10;5.20;;;21.10;91.20;;;;;;5032734;28;20388;-77
2022/07/01 01:13:46;;;;;;;7.30;5.18;;;21.00;91.30;;;;;;5014899;28;20114;-77
2022/07/01 01:16:21;;;;;;;7.25;4.85;;;21.00;91.30;;;;;;5032584;28;20018;-77
2022/07/01 01:18:47;;;;;;;8.00;5.03;;;21.00;91.40;;;;;;5014889;28;20116;-78
2022/07/01 01:21:13;;;;;;;6.45;4.75;;;21.00;91.40;;;;;;5014720;28;20053;-79
2022/07/01 01:23:38;;;;;;;7.18;5.00;;;21.00;91.40;;;;;;5014541;28;20028;-77
2022/07/01 01:26:14;;;;;;;6.80;4.50;;;21.00;91.50;;;;;;5032410;28;20109;-77
2022/07/01 01:28:39;;;;;;;6.93;4.93;;;20.90;91.50;;;;;;5014902;28;20024;-77
2022/07/01 01:31:05;;;;;;;7.00;4.90;;;21.00;91.50;;;;;;5014812;28;20108;-78
2022/07/01 01:33:31;;;;;;;7.20;4.88;;;21.00;91.50;;;;;;5032005;28;20076;-77
2022/07/01 01:35:56;;;;;;;6.95;4.78;;;21.00;91.60;;;;;;5014694;28;20108;-77
2022/07/01 01:38:22;;;;;;;6.60;4.35;;;20.90;91.50;;;;;;5014360;28;20504;-78
2022/07/01 01:40:48;;;;;;;7.63;5.05;;;20.90;91.50;;;;;;5014671;28;20026;-78
2022/07/01 01:43:14;;;;;;;5.97;4.10;;;20.90;91.50;;;;;;5035151;28;20025;-78
2022/07/01 01:45:40;;;;;;;6.60;4.40;;;21.00;91.50;;;;;;5036370;28;20076;-78
2022/07/01 01:48:06;;;;;;;6.70;4.55;;;21.00;91.40;;;;;;5018714;28;20112;-78
2022/07/01 01:50:31;;;;;;;7.15;4.65;;;21.00;91.30;;;;;;5018532;28;20057;-78
2022/07/01 01:52:57;;;;;;;6.15;4.13;;;21.00;91.30;;;;;;5035989;28;20025;-77
2022/07/01 01:55:22;;;;;;;6.13;4.07;;;21.00;91.20;;;;;;5036061;28;20061;-77
2022/07/01 01:57:48;;;;;;;6.60;4.38;;;21.00;91.20;;;;;;5018422;28;20026;-78
2022/07/01 02:00:13;;;;;;;6.93;4.80;;;21.00;91.20;;;;;;5036158;28;20409;-78
2022/07/01 02:02:39;;;;;;;6.10;4.22;;;21.00;91.20;;;;;;5035743;28;20026;-78
2022/07/01 02:05:07;;;;;;;6.55;4.25;;;21.00;91.30;;;;;;5018437;28;20401;-77
2022/07/01 02:07:33;;;;;;;6.55;4.50;;;21.00;91.40;;;;;;5035903;28;20026;-78
2022/07/01 02:09:58;;;;;;;6.40;4.60;;;21.00;91.40;;;;;;5035987;28;20115;-77
2022/07/01 02:12:24;;;;;;;5.38;3.63;;;20.90;91.40;;;;;;5017671;28;20212;-77
2022/07/01 02:14:49;;;;;;;6.38;4.63;;;20.90;91.40;;;;;;5018134;28;20029;-77
2022/07/01 02:17:14;;;;;;;6.30;4.30;;;20.90;91.50;;;;;;5015742;28;20026;-77
2022/07/01 02:19:40;;;;;;;6.40;4.50;;;20.90;91.50;;;;;;5043781;28;20029;-77
2022/07/01 02:22:05;;;;;;;7.13;4.13;;;20.90;91.70;;;;;;5035368;28;20390;-78
2022/07/01 02:24:31;;;;;;;7.15;4.18;;;20.90;91.50;;;;;;5017939;28;20113;-77
2022/07/01 02:26:56;;;;;;;6.45;4.32;;;20.90;91.50;;;;;;5018068;28;20030;-77
2022/07/01 02:29:22;;;;;;;6.10;4.32;;;20.90;91.50;;;;;;5017768;28;20109;-77
2022/07/01 02:31:47;;;;;;;6.80;4.07;;;20.90;91.50;;;;;;5017517;28;20040;-77
2022/07/01 02:34:13;;;;;;;5.72;3.97;;;20.90;91.40;;;;;;5017705;28;20029;-77
2022/07/01 02:36:38;;;;;;;6.07;4.00;;;21.00;91.40;;;;;;5035430;28;20022;-77
2022/07/01 02:39:04;;;;;;;6.20;4.13;;;21.00;91.30;;;;;;5017822;28;20018;-77
2022/07/01 02:41:29;;;;;;;6.60;4.30;;;21.00;91.20;;;;;;5034720;28;20028;-78
2022/07/01 02:43:55;;;;;;;6.15;4.07;;;21.00;91.20;;;;;;5035482;28;20491;-78
2022/07/01 02:46:20;;;;;;;6.75;3.95;;;21.00;91.20;;;;;;5017395;28;20030;-78
2022/07/01 02:48:46;;;;;;;5.55;3.80;;;21.00;91.20;;;;;;5035238;28;20067;-78
2022/07/01 02:51:11;;;;;;;6.38;4.50;;;21.00;91.20;;;;;;5035159;28;20510;-77
2022/07/01 02:53:37;;;;;;;5.70;3.80;;;21.00;91.30;;;;;;5033634;28;20499;-78
2022/07/01 02:56:03;;;;;;;6.47;3.88;;;21.00;91.40;;;;;;5017233;28;20077;-77
2022/07/01 02:58:28;;;;;;;6.28;4.03;;;20.90;91.40;;;;;;5017407;28;20025;-77
2022/07/01 03:00:53;;;;;;;6.47;4.50;;;20.90;91.40;;;;;;5035026;28;20041;-78
2022/07/01 03:03:20;;;;;;;7.80;4.60;;;20.90;91.50;;;;;;5034590;28;20033;-77
2022/07/01 03:05:47;;;;;;;6.20;4.05;;;20.90;91.50;;;;;;5035003;28;20028;-77
2022/07/01 03:08:13;;;;;;;6.45;4.03;;;20.90;91.50;;;;;;5034952;28;20439;-77
2022/07/01 03:10:39;;;;;;;6.40;4.28;;;20.90;91.50;;;;;;5034883;28;20021;-77
2022/07/01 03:13:04;;;;;;;5.70;3.92;;;20.90;91.50;;;;;;5034647;28;20049;-77
2022/07/01 03:15:30;;;;;;;6.65;4.20;;;20.90;91.50;;;;;;5016933;28;20036;-77
2022/07/01 03:17:55;;;;;;;6.43;3.72;;;20.90;91.50;;;;;;5034660;28;20032;-77
2022/07/01 03:20:21;;;;;;;6.13;3.92;;;20.90;91.50;;;;;;5017012;28;20144;-77
2022/07/01 03:22:46;;;;;;;5.68;3.75;;;20.90;91.40;;;;;;5016651;28;20112;-77
2022/07/01 03:25:12;;;;;;;7.65;3.90;;;20.90;91.40;;;;;;5016740;28;20060;-77
2022/07/01 03:27:39;;;;;;;5.60;3.67;;;21.00;91.30;;;;;;5034600;28;20029;-78
2022/07/01 03:30:06;;;;;;;5.57;3.78;;;21.00;91.30;;;;;;5016735;28;20068;-79
2022/07/01 03:32:32;;;;;;;5.43;3.58;;;21.00;91.20;;;;;;5033977;28;20029;-78
2022/07/01 03:34:57;;;;;;;6.63;3.53;;;21.00;91.20;;;;;;5034358;28;20029;-77
2022/07/01 03:37:23;;;;;;;6.03;3.97;;;21.00;91.20;;;;;;5033913;28;20022;-78
2022/07/01 03:39:50;;;;;;;5.55;3.63;;;20.90;91.20;;;;;;5034391;28;20469;-79
2022/07/01 03:42:16;;;;;;;5.93;3.95;;;21.00;91.30;;;;;;5033908;28;20519;-78
2022/07/01 03:44:41;;;;;;;6.15;3.65;;;20.90;91.30;;;;;;5016546;28;20021;-78
2022/07/01 03:47:07;;;;;;;5.80;4.00;;;20.90;91.40;;;;;;5034001;28;20477;-78
2022/07/01 03:49:36;;;;;;;5.70;3.75;;;20.90;91.40;;;;;;5016409;28;20061;-78
2022/07/01 03:52:05;;;;;;;6.90;3.95;;;20.90;91.40;;;;;;5016166;28;20419;-78
2022/07/01 03:54:37;;;;;;;5.88;3.65;;;20.90;91.50;;;;;;5016056;28;20402;-78
2022/07/01 03:57:08;;;;;;;5.93;3.60;;;20.90;91.50;;;;;;5016289;28;20025;-77
2022/07/01 03:59:39;;;;;;;5.88;3.67;;;20.90;91.50;;;;;;5034054;28;20021;-78
2022/07/01 04:02:05;;;;;;;6.22;3.80;;;20.90;91.50;;;;;;5033613;28;20025;-78
2022/07/01 04:04:32;;;;;;;5.63;3.58;;;20.90;91.50;;;;;;5033558;28;20060;-77
2022/07/01 04:06:59;;;;;;;5.90;3.70;;;20.90;91.50;;;;;;5016149;28;20035;-77
2022/07/01 04:09:25;;;;;;;6.80;3.70;;;20.90;91.50;;;;;;5033698;28;20053;-77
2022/07/01 04:11:53;;;;;;;6.07;3.67;;;20.90;91.50;;;;;;5015560;28;20026;-77
2022/07/01 04:14:18;;;;;;;5.60;3.60;;;20.90;91.40;;;;;;5033529;28;20078;-78
2022/07/01 04:16:44;;;;;;;5.32;3.50;;;20.90;91.30;;;;;;5014873;28;20112;-77
2022/07/01 04:19:11;;;;;;;5.35;3.55;;;21.00;91.30;;;;;;5015992;28;20025;-76
2022/07/01 04:24:22;;;;;;;5.30;3.50;;;21.00;91.20;;;;;;5033525;28;20084;-77
2022/07/01 04:26:48;;;;;;;5.50;3.50;;;21.00;91.20;;;;;;5015637;28;20021;-77
2022/07/01 04:29:14;;;;;;;5.90;3.70;;;20.90;91.20;;;;;;5015710;28;20074;-77
2022/07/01 04:31:40;;;;;;;5.43;3.80;;;20.90;91.30;;;;;;5033180;28;20104;-77
2022/07/01 04:34:07;;;;;;;5.95;3.78;;;20.90;91.30;;;;;;5015427;28;20025;-77
2022/07/01 04:36:33;;;;;;;5.30;3.63;;;20.90;91.40;;;;;;5033043;28;20411;-77
2022/07/01 04:38:59;;;;;;;5.70;3.45;;;20.90;91.40;;;;;;5009265;28;20022;-76
2022/07/01 05:08:03;;;;;;;5.60;3.53;;;20.80;91.30;;;;;;4866060;29;20036;-79
2022/07/01 05:24:58;;;;;;;5.38;3.60;;;20.90;91.40;;;;;;5047894;28;20519;-79
2022/07/01 05:27:24;;;;;;;5.05;3.28;;;21.00;91.40;;;;;;4974950;28;20069;-83
2022/07/01 05:30:33;;;;;;;5.40;3.42;;;20.90;91.40;;;;;;4974193;28;20137;-79
2022/07/01 05:33:01;;;;;;;6.03;3.58;;;20.90;91.40;;;;;;4932946;28;20039;-78
2022/07/01 05:35:45;;;;;;;5.43;3.80;;;20.90;91.40;;;;;;4932742;29;20082;-82
2022/07/01 05:38:10;;;;;;;5.10;3.10;;;20.80;91.30;;;;;;4950495;28;20469;-78
2022/07/01 05:40:36;;;;;;;7.03;3.67;;;20.80;91.30;;;;;;5011729;28;20048;-78
2022/07/01 05:43:01;;;;;;;7.60;3.70;;;20.80;91.30;;;;;;5011344;28;20022;-79
2022/07/01 05:45:27;;;;;;;5.35;3.42;;;20.80;91.30;;;;;;5012211;28;20034;-79
2022/07/01 05:47:52;;;;;;;5.97;3.70;;;20.80;91.30;;;;;;5012017;28;20443;-79
2022/07/01 05:50:18;;;;;;;5.55;3.55;;;20.80;91.20;;;;;;5011954;28;20541;-79
2022/07/01 05:52:44;;;;;;;5.32;3.47;;;20.90;91.20;;;;;;5010810;28;20040;-80
2022/07/01 05:55:10;;;;;;;5.82;3.70;;;20.90;91.20;;;;;;5011168;28;20021;-80
2022/07/01 05:57:36;;;;;;;5.22;3.42;;;20.90;91.10;;;;;;5011660;28;20032;-80
2022/07/01 06:00:02;;;;;;;7.38;3.75;;;20.90;91.10;;;;;;5011317;28;20021;-79
2022/07/01 06:02:28;;;;;;;5.20;3.42;;;21.00;91.00;;;;;;5010548;28;20026;-80
2022/07/01 06:04:53;;;;;;;6.35;3.65;;;20.90;91.00;;;;;;5011018;28;20033;-80
2022/07/01 06:07:19;;;;;;;5.20;3.40;;;20.90;91.00;;;;;;5011097;28;20041;-79
2022/07/01 06:09:44;;;;;;;5.55;3.35;;;20.90;91.00;;;;;;5011551;28;20029;-79
2022/07/01 06:12:09;;;;;;;5.40;3.53;;;20.90;91.10;;;;;;5011115;28;20079;-79
2022/07/01 06:14:37;;;;;;;6.38;3.78;;;20.70;91.10;;;;;;5010745;28;20031;-78
2022/07/01 06:17:02;;;;;;;5.90;3.83;;;20.80;91.20;;;;;;5029284;28;20076;-79
2022/07/01 06:19:28;;;;;;;6.32;3.70;;;20.80;91.20;;;;;;5011091;28;20025;-80
2022/07/01 06:21:53;;;;;;;6.82;3.90;;;20.80;91.30;;;;;;5028607;28;20028;-79
2022/07/01 06:24:19;;;;;;;6.00;3.70;;;20.80;91.40;;;;;;5010849;28;20025;-80
2022/07/01 06:26:46;;;;;;;5.55;3.67;;;20.80;91.30;;;;;;5028704;28;20057;-79
2022/07/01 06:29:13;;;;;;;5.40;3.50;;;20.80;91.30;;;;;;5031588;28;20022;-78
2022/07/01 06:31:38;;;;;;;5.68;3.55;;;20.80;91.30;;;;;;5014299;28;20051;-80
2022/07/01 06:34:04;;;;;;;5.75;3.53;;;20.80;91.30;;;;;;5014214;28;20041;-78
2022/07/01 06:36:29;;;;;;;5.53;3.25;;;20.80;91.30;;;;;;5014243;28;20017;-79
2022/07/01 06:38:55;;;;;;;5.57;3.60;;;20.80;91.30;;;;;;5014000;28;20021;-79
2022/07/01 06:41:26;;;;;;;5.65;3.45;;;20.80;91.30;;;;;;5014082;28;20021;-78
2022/07/01 06:43:52;;;;;;;6.45;3.58;;;20.90;91.20;;;;;;5013962;28;20021;-79
2022/07/01 06:46:17;;;;;;;5.55;3.47;;;20.90;91.20;;;;;;5014012;28;20044;-79
2022/07/01 06:48:43;;;;;;;6.97;3.60;;;20.90;91.10;;;;;;5014113;28;20030;-79
2022/07/01 06:51:08;;;;;;;5.70;3.80;;;20.90;91.10;;;;;;5013356;28;20463;-81
2022/07/01 06:53:34;;;;;;;5.32;3.45;;;20.90;91.00;;;;;;5013264;28;20037;-80
2022/07/01 06:55:59;;;;;;;5.18;3.30;;;20.90;91.00;;;;;;5013235;28;20033;-79
2022/07/01 06:58:25;;;;;;;5.60;3.53;;;20.90;91.00;;;;;;5013308;28;20056;-78
2022/07/01 07:00:50;;;;;;;5.53;3.55;;;20.90;91.10;;;;;;5013920;28;20401;-80
2022/07/01 07:03:16;;;;;;;5.22;3.50;;;20.90;91.20;;;;;;5013764;28;20022;-80
2022/07/01 07:05:41;;;;;;;5.35;3.58;;;20.90;91.20;;;;;;5016838;28;20021;-81
2022/07/01 07:08:06;;;;;;;5.88;3.70;;;20.80;91.20;;;;;;5016927;28;20053;-80
2022/07/01 07:10:32;;;;;;;5.70;3.60;;;20.90;91.30;;;;;;5016775;28;20567;-81
2022/07/01 07:12:57;;;;;;;5.60;3.80;;;20.80;91.20;;;;;;5016160;28;20026;-80
2022/07/01 07:15:23;;;;;;;7.22;3.83;;;20.80;91.30;;;;;;5016031;28;20451;-81
2022/07/01 07:17:48;;;;;;;5.60;3.60;;;20.80;91.30;;;;;;5016386;28;20124;-80
2022/07/01 07:20:14;;;;;;;5.88;3.60;;;20.80;91.30;;;;;;5035149;28;20102;-80
2022/07/01 07:22:39;;;;;;;5.82;3.80;;;20.80;91.30;;;;;;5015977;28;20432;-81
2022/07/01 07:25:05;;;;;;;5.50;3.30;;;20.80;91.30;;;;;;5016319;28;20040;-80
2022/07/01 07:27:31;;;;;;;5.50;3.45;;;20.80;91.30;;;;;;5015956;28;20025;-79
2022/07/01 07:29:56;;;;;;;5.30;3.20;;;20.80;91.30;;;;;;5015446;28;20063;-81
2022/07/01 07:32:22;;;;;;;5.82;3.55;;;20.90;91.30;;;;;;5014948;28;20057;-79
2022/07/01 07:34:47;;;;;;;5.65;3.75;;;20.90;91.20;;;;;;5033128;28;20036;-81
2022/07/01 07:37:13;;;;;;;5.50;3.65;;;20.90;91.10;;;;;;5015097;28;20569;-80
2022/07/01 07:39:38;;;;;;;6.25;3.80;;;21.00;91.10;;;;;;5014064;28;20544;-80
2022/07/01 07:42:05;;;;;;;5.63;3.65;;;20.90;91.00;;;;;;5013877;28;20108;-80
2022/07/01 07:44:31;;;;;;;5.50;3.60;;;20.90;91.00;;;;;;5032214;28;20025;-79
2022/07/01 07:46:57;;;;;;;5.30;3.40;;;20.90;91.00;;;;;;5032160;28;20450;-79
2022/07/01 07:49:24;;;;;;;5.18;3.30;;;20.90;91.00;;;;;;5031520;28;20120;-79
2022/07/01 07:51:50;;;;;;;5.70;3.53;;;20.90;91.10;;;;;;5013347;28;20036;-79
2022/07/01 07:54:16;;;;;;;5.32;3.58;;;20.90;91.10;;;;;;5031737;28;20029;-80
2022/07/01 07:56:42;;;;;;;5.45;3.67;;;20.90;91.20;;;;;;5013762;28;20025;-80
2022/07/01 07:59:07;;;;;;;5.40;3.63;;;20.90;91.20;;;;;;5031252;28;20030;-79
2022/07/01 08:01:33;;;;;;;5.28;3.53;;;20.90;91.20;;;;;;5013117;28;20416;-79
2022/07/01 08:03:58;;;;;;;5.97;3.45;;;20.90;91.20;;;;;;5013187;28;20072;-79
2022/07/01 08:06:24;;;;;;;5.63;3.40;;;20.80;91.20;;;;;;5013346;28;20035;-79
2022/07/01 08:08:50;;;;;;;5.80;3.83;;;20.90;91.30;;;;;;5013231;28;20060;-79
2022/07/01 08:11:16;;;;;;;5.78;3.70;;;20.90;91.30;;;;;;5012754;28;20029;-81
2022/07/01 08:13:42;;;;;;;5.93;3.53;;;20.80;91.20;;;;;;5012652;28;20059;-78
2022/07/01 08:16:08;;;;;;;5.68;3.65;;;20.80;91.20;;;;;;5030272;28;20041;-79
2022/07/01 08:18:33;;;;;;;5.40;3.35;;;20.80;91.30;;;;;;5012301;28;20029;-79
2022/07/01 08:20:59;;;;;;;5.97;3.80;;;20.90;91.20;;;;;;5012624;28;20021;-79
2022/07/01 08:23:24;;;;;;;5.90;3.80;;;20.90;91.10;;;;;;5011786;28;20037;-79
2022/07/01 08:25:50;;;;;;;5.75;3.90;;;20.90;91.10;;;;;;5030423;28;20076;-82
2022/07/01 08:28:17;;;;;;;6.32;3.60;;;20.90;91.00;;;;;;5013969;28;20059;-81
2022/07/01 08:30:42;;;;;;;5.43;3.40;;;21.00;91.00;;;;;;5033852;28;20044;-79
2022/07/01 08:33:09;;;;;;;5.22;3.50;;;21.00;90.90;;;;;;5015430;28;20021;-81
2022/07/01 08:35:34;;;;;;;4.95;3.35;;;21.00;91.00;;;;;;5032846;28;20037;-80
2022/07/01 08:38:00;;;;;;;5.68;3.40;;;20.90;91.00;;;;;;5032800;28;20037;-81
2022/07/01 08:40:27;;;;;;;5.78;3.50;;;20.90;91.00;;;;;;5014973;28;20919;-80
2022/07/01 08:43:00;;;;;;;6.07;3.95;;;20.90;91.10;;;;;;5014615;28;20032;-81
2022/07/01 08:45:30;;;;;;;5.78;3.67;;;20.90;91.10;;;;;;5014890;28;20093;-83
2022/07/01 08:47:57;;;;;;;5.38;3.40;;;20.90;91.10;;;;;;5014239;28;20021;-80
2022/07/01 08:50:25;;;;;;;5.90;3.75;;;20.90;91.40;;;;;;5014421;28;20033;-80
2022/07/01 08:52:51;;;;;;;5.32;3.47;;;20.90;91.10;;;;;;5012571;28;20029;-80
2022/07/01 08:55:18;;;;;;;5.35;3.35;;;20.90;91.10;;;;;;5013371;28;20030;-79
2022/07/01 08:57:43;;;;;;;5.55;3.47;;;20.90;91.10;;;;;;5031563;28;20022;-78
2022/07/01 09:00:09;;;;;;;5.40;3.50;;;20.90;91.10;;;;;;5013476;28;20017;-79
2022/07/01 09:02:51;;;;;;;5.18;3.30;;;20.90;91.10;;;;;;5012646;28;20044;-80
2022/07/01 09:05:18;;;;;;;6.00;3.47;;;20.90;91.10;;;;;;5031107;28;20507;-80
2022/07/01 09:07:44;;;;;;;5.60;3.60;;;20.90;91.20;;;;;;5013430;28;20401;-80
2022/07/01 09:10:14;;;;;;;6.13;3.78;;;20.90;91.10;;;;;;5012812;28;20039;-79
2022/07/01 09:12:42;;;;;;;5.22;3.35;;;20.90;91.10;;;;;;5012155;28;20120;-79
2022/07/01 09:15:29;;;;;;;5.68;3.60;;;20.90;91.10;;;;;;5012452;28;20360;-79
2022/07/01 09:18:03;;;;;;;5.30;3.38;;;20.90;91.00;;;;;;5030427;28;20028;-80
2022/07/01 09:20:31;;;;;;;5.65;3.50;;;21.00;90.90;;;;;;5030110;28;20178;-79
2022/07/01 09:23:02;;;;;;;5.38;3.25;;;21.00;90.90;;;;;;5011545;28;20036;-79
2022/07/01 09:25:37;;;;;;;5.20;3.35;;;21.00;90.90;;;;;;5030270;28;20068;-80
2022/07/01 09:28:08;;;;;;;5.43;3.47;;;21.00;90.80;;;;;;5012167;28;20117;-79
2022/07/01 09:30:33;;;;;;;5.25;3.22;;;21.00;90.80;;;;;;5011837;28;20473;-79
2022/07/01 09:33:17;;;;;;;4.85;3.00;;;21.00;90.90;;;;;;5011539;28;20125;-80
2022/07/01 09:35:44;;;;;;;5.45;3.45;;;21.00;90.90;;;;;;5032391;28;20121;-80
2022/07/01 09:38:14;;;;;;;5.40;3.30;;;21.00;90.90;;;;;;5015368;28;20044;-81
2022/07/01 09:40:58;;;;;;;5.60;3.33;;;20.90;90.90;;;;;;5014092;28;20080;-79
2022/07/01 09:43:29;;;;;;;5.78;3.72;;;21.00;90.90;;;;;;5013003;28;20057;-79
2022/07/01 09:45:59;;;;;;;5.07;3.25;;;21.00;90.90;;;;;;5013688;28;20076;-82
2022/07/01 09:48:34;;;;;;;5.20;3.55;;;21.00;90.80;;;;;;5013159;28;20041;-80
2022/07/01 09:51:00;;;;;;;5.68;3.78;;;21.00;90.80;;;;;;5030646;28;20029;-81
2022/07/01 09:53:26;;;;;;;5.00;3.33;;;21.00;90.80;;;;;;5012034;28;20033;-82
2022/07/01 09:55:52;;;;;;;5.00;3.20;;;21.10;90.70;;;;;;5012355;28;20026;-83
2022/07/01 09:58:18;;;;;;;5.30;3.35;;;21.10;90.60;;;;;;5012309;28;20031;-79
2022/07/01 10:00:44;;;;;;;5.15;3.33;;;21.10;90.50;;;;;;5030602;28;20057;-80
2022/07/01 10:03:10;;;;;;;5.07;3.30;;;21.20;90.50;;;;;;5031052;28;20053;-79
2022/07/01 10:05:53;;;;;;;5.05;3.25;;;21.20;90.40;;;;;;5016066;28;20043;-79
2022/07/01 10:08:50;;;;;;;6.30;3.45;;;21.30;90.30;;;;;;5016287;28;20056;-79
2022/07/01 10:11:21;;;;;;;5.45;3.50;;;21.30;90.20;;;;;;5015482;28;20045;-79
2022/07/01 10:13:47;;;;;;;5.32;3.20;;;21.30;90.20;;;;;;5033478;28;20116;-80
2022/07/01 10:16:14;;;;;;;5.40;3.47;;;21.20;90.20;;;;;;5015625;28;20816;-80
2022/07/01 10:18:40;;;;;;;4.95;3.30;;;21.20;90.30;;;;;;5015635;28;20064;-80
2022/07/01 10:21:06;;;;;;;4.93;3.35;;;21.20;90.40;;;;;;5014986;28;20068;-80
2022/07/01 10:23:42;;;;;;;5.20;3.20;;;21.10;90.40;;;;;;5015070;28;20160;-80
2022/07/01 10:26:10;;;;;;;5.60;3.40;;;21.10;90.40;;;;;;5032808;28;20109;-79
2022/07/01 10:28:43;;;;;;;5.47;3.53;;;21.10;90.50;;;;;;5032271;28;20029;-80
2022/07/01 10:31:15;;;;;;;5.00;3.22;;;21.10;90.60;;;;;;5035840;28;20072;-81
2022/07/01 10:33:41;;;;;;;5.72;3.72;;;21.10;90.80;;;;;;5016941;28;20046;-80
2022/07/01 10:36:18;;;;;;;5.28;3.45;;;21.10;90.60;;;;;;5017303;28;20038;-82
2022/07/01 10:39:19;;;;;;;5.80;3.67;;;21.10;90.60;;;;;;5017584;28;20026;-81
2022/07/01 10:41:53;;;;;;;5.60;3.50;;;21.10;90.60;;;;;;4984948;28;20064;-79
2022/07/01 10:44:20;;;;;;;5.05;3.35;;;21.10;90.60;;;;;;5016927;28;20053;-80
2022/07/01 10:47:01;;;;;;;5.78;3.35;;;21.10;90.60;;;;;;5034496;28;20056;-79
2022/07/01 10:49:36;;;;;;;5.32;3.40;;;21.10;90.60;;;;;;5034271;28;20059;-80
2022/07/01 10:52:05;;;;;;;4.85;3.10;;;21.10;90.60;;;;;;5015793;28;20069;-79
2022/07/01 10:54:36;;;;;;;5.22;3.10;;;21.20;90.50;;;;;;5016135;28;20037;-79
2022/07/01 10:57:20;;;;;;;5.30;3.45;;;21.20;90.40;;;;;;5015955;28;20025;-80
2022/07/01 10:59:50;;;;;;;5.13;3.20;;;21.20;90.40;;;;;;5015680;28;20025;-80
2022/07/01 11:02:21;;;;;;;4.95;3.25;;;21.20;90.30;;;;;;5015008;28;20033;-78
2022/07/01 11:04:49;;;;;;;5.18;3.33;;;21.30;90.30;;;;;;5015559;28;20460;-80
2022/07/01 11:07:14;;;;;;;5.10;3.30;;;21.20;90.30;;;;;;5033285;28;20492;-78
2022/07/01 11:09:40;;;;;;;5.57;3.67;;;21.20;90.40;;;;;;5033269;28;20033;-80
2022/07/01 11:12:07;;;;;;;5.32;3.47;;;21.10;90.40;;;;;;5032837;28;20548;-79
2022/07/01 11:14:38;;;;;;;4.88;3.17;;;21.20;90.50;;;;;;5032183;28;20030;-79
2022/07/01 11:17:04;;;;;;;5.05;3.08;;;21.10;90.60;;;;;;5032671;28;20029;-79
2022/07/01 11:19:30;;;;;;;5.25;3.47;;;21.10;90.60;;;;;;5014836;28;20036;-81
2022/07/01 11:21:56;;;;;;;4.93;3.20;;;21.10;90.60;;;;;;5014373;28;20029;-80
2022/07/01 11:24:23;;;;;;;5.95;3.72;;;21.10;90.70;;;;;;5014622;28;20046;-80
2022/07/01 11:26:49;;;;;;;5.13;3.05;;;21.00;90.70;;;;;;5014519;28;20385;-79
2022/07/01 11:29:24;;;;;;;5.40;3.50;;;21.00;90.70;;;;;;5014191;28;20064;-78
2022/07/01 11:31:50;;;;;;;5.40;3.30;;;21.00;90.70;;;;;;5014075;28;20083;-79
2022/07/01 11:34:17;;;;;;;5.03;3.08;;;21.00;90.70;;;;;;5031834;28;20026;-79
2022/07/01 11:39:32;;;;;;;4.88;2.85;;;21.00;90.70;;;;;;5032109;28;20044;-78
2022/07/01 11:42:01;;;;;;;4.93;3.00;;;21.10;90.70;;;;;;5013659;28;20488;-79
2022/07/01 11:44:41;;;;;;;5.18;3.38;;;21.10;90.60;;;;;;5013801;28;20076;-79
2022/07/01 11:47:09;;;;;;;4.93;3.10;;;21.10;90.60;;;;;;5013718;28;20052;-80
2022/07/01 11:49:44;;;;;;;5.32;3.35;;;21.10;90.50;;;;;;5015120;28;20113;-81
2022/07/01 11:52:10;;;;;;;4.93;3.10;;;21.20;90.50;;;;;;5016246;28;20035;-82
2022/07/01 11:54:38;;;;;;;5.20;3.17;;;21.20;90.50;;;;;;5033473;28;20026;-81
2022/07/01 11:57:15;;;;;;;4.82;3.00;;;21.20;90.50;;;;;;5016763;28;20071;-80
2022/07/01 11:59:42;;;;;;;4.68;3.20;;;21.10;90.50;;;;;;5015918;28;20033;-83
2022/07/01 12:02:13;;;;;;;4.60;2.80;;;21.10;90.50;;;;;;5015822;28;20060;-81
2022/07/01 12:04:39;;;;;;;4.07;2.85;;;21.10;90.80;;;;;;5015941;28;20036;-80
2022/07/01 12:07:06;;;;;;;5.32;3.15;;;21.10;90.60;;;;;;5033520;28;20034;-82
2022/07/01 12:09:32;;;;;;;4.90;2.90;;;21.10;90.60;;;;;;5015244;28;20037;-81
2022/07/01 12:11:58;;;;;;;4.30;2.88;;;21.10;90.60;;;;;;5014872;28;20029;-81
2022/07/01 12:14:30;;;;;;;4.25;2.70;;;21.10;90.60;;;;;;5033143;28;20021;-80
2022/07/01 12:17:01;;;;;;;4.65;3.08;;;21.10;90.60;;;;;;5032431;28;20024;-80
2022/07/01 12:19:41;;;;;;;5.05;3.08;;;21.10;90.60;;;;;;5014906;28;20495;-80
2022/07/01 12:22:19;;;;;;;5.20;3.33;;;21.00;90.60;;;;;;5014243;28;20030;-80
2022/07/01 12:24:45;;;;;;;5.03;3.20;;;21.10;90.60;;;;;;5032509;28;20029;-79
2022/07/01 12:27:11;;;;;;;5.47;3.00;;;21.10;90.60;;;;;;5031906;28;20095;-79
2022/07/01 12:29:45;;;;;;;4.82;3.00;;;21.20;90.70;;;;;;5031638;28;20075;-79
2022/07/01 12:32:22;;;;;;;4.82;2.95;;;21.10;90.60;;;;;;5013421;28;20021;-81
2022/07/01 12:34:47;;;;;;;4.68;2.90;;;21.10;90.50;;;;;;5013689;28;20029;-79
2022/07/01 12:37:27;;;;;;;4.40;2.90;;;21.20;90.50;;;;;;5013322;28;20555;-82
2022/07/01 12:40:05;;;;;;;4.27;2.77;;;21.20;90.40;;;;;;5031793;28;20025;-79
2022/07/01 12:42:33;;;;;;;4.50;2.58;;;21.20;90.30;;;;;;5012770;28;20030;-79
2022/07/01 12:45:02;;;;;;;4.95;3.10;;;21.20;90.30;;;;;;5013135;28;20025;-80
2022/07/01 12:47:32;;;;;;;4.68;2.90;;;21.20;90.30;;;;;;5030592;28;20597;-79
2022/07/01 12:50:15;;;;;;;4.80;2.97;;;21.20;90.40;;;;;;5013322;28;20057;-79
2022/07/01 12:52:46;;;;;;;5.22;2.78;;;21.20;90.40;;;;;;5012458;28;20033;-81
2022/07/01 12:55:22;;;;;;;4.22;2.63;;;21.20;90.40;;;;;;5031035;28;20048;-80
2022/07/01 12:57:53;;;;;;;4.78;2.90;;;21.10;90.40;;;;;;5012650;28;20421;-79
2022/07/01 13:00:22;;;;;;;4.22;2.90;;;21.10;90.40;;;;;;5012651;28;20068;-81
2022/07/01 13:02:51;;;;;;;4.75;2.90;;;21.10;90.50;;;;;;5012214;28;20559;-80
2022/07/01 13:05:17;;;;;;;4.07;2.60;;;21.10;90.50;;;;;;5012325;28;20058;-80
2022/07/01 13:07:43;;;;;;;4.63;3.05;;;21.10;90.50;;;;;;5029977;28;20096;-78
2022/07/01 13:10:08;;;;;;;4.50;2.97;;;21.20;90.50;;;;;;5012626;28;20053;-79
2022/07/01 13:12:34;;;;;;;4.00;2.60;;;21.10;90.50;;;;;;5011488;28;20041;-82
2022/07/01 13:14:59;;;;;;;4.05;2.60;;;21.10;90.50;;;;;;5030185;28;20075;-79
2022/07/01 13:17:26;;;;;;;4.07;2.60;;;21.10;90.50;;;;;;5030282;28;20496;-81
2022/07/01 13:19:52;;;;;;;4.40;2.83;;;21.10;90.50;;;;;;5030332;28;20034;-79
2022/07/01 13:22:18;;;;;;;3.90;2.55;;;21.20;90.50;;;;;;5011677;28;20029;-80
2022/07/01 13:24:43;;;;;;;4.50;2.78;;;21.20;90.40;;;;;;5029638;28;20044;-79
2022/07/01 13:27:09;;;;;;;3.75;2.42;;;21.20;90.40;;;;;;5029410;28;20033;-82
2022/07/01 13:29:34;;;;;;;4.40;2.83;;;21.20;90.30;;;;;;5029661;28;20037;-81
2022/07/01 13:32:00;;;;;;;4.40;2.80;;;21.20;90.30;;;;;;5029360;28;20044;-79
2022/07/01 13:34:26;;;;;;;4.70;2.90;;;21.20;90.30;;;;;;5011223;28;20033;-80
2022/07/01 13:36:51;;;;;;;4.53;2.70;;;21.20;90.30;;;;;;5012212;28;20427;-80